»·PEaware :: DAL996 KATL-KDEN

DAL996 :: KATL-KDEN

FLIGHT INFORMATION

Flight Status: Arrived
Operator:
Delta Air Lines
More flights by this operator :: More flights under this callsign
Pilot: Colin A. (19898)
Aircraft: BOEING 737-300
(B733)
More flights by this aircraft type
Origin: KATL Hartsfield-Jackson Atlanta
United States
Destination: KDEN Denver Intl
United States
More flights between these airports :: More routes between these airports
Route: +CUTTN2 HANKO GAD MEM HYS J24 OATHE JAGGR3
File this flight plan on PilotEdge
Remarks: RMK / SIMBRIEF
Altitude:
(Current/Filed)
32,000ft
Speed:
(Current/Filed)
450kts
Departed: 03-Mar-19 10:24 AM
Arrived: 03-Mar-19 01:54 PM
Distance/Time
Traveled:
1040nm/3:30
Distance/Time
To Go:
Arrived

Flight Plot

Page will automatically refresh every two minutes.

Flight plan parsing failed; only flown route is shown


Map Options




Map Legend


Flown Route
Filed Route
Departure Airport
Arrival Airport
Navaid (VOR, NDB)
Fix

Horizontal Profiles

Position Reports

Time Latitude Longitude Heading Altitude Ground
Speed
03-Mar-19 09:57 33.639189 -84.436425 90 1033ft 0kts
03-Mar-19 09:58 33.639189 -84.436425 90 1033ft 0kts
03-Mar-19 09:59 33.639189 -84.436425 90 1033ft 0kts
03-Mar-19 10:00 33.639189 -84.436425 90 1033ft 0kts
03-Mar-19 10:01 33.639189 -84.436425 90 1033ft 0kts
03-Mar-19 10:02 33.639189 -84.436425 90 1033ft 0kts
03-Mar-19 10:03 33.639189 -84.436425 90 1033ft 0kts
03-Mar-19 10:04 33.639189 -84.436425 90 1033ft 0kts
03-Mar-19 10:05 33.639189 -84.436425 90 1033ft 0kts
03-Mar-19 10:06 33.639189 -84.436425 90 1033ft 0kts
03-Mar-19 10:07 33.639189 -84.436425 90 1033ft 0kts
03-Mar-19 10:08 33.639189 -84.436425 90 1033ft 0kts
03-Mar-19 10:09 33.639189 -84.436425 90 1033ft 0kts
03-Mar-19 10:10 33.639189 -84.436425 90 1033ft 0kts
03-Mar-19 10:11 33.639189 -84.436425 90 1033ft 0kts
03-Mar-19 10:12 33.639189 -84.436425 90 1033ft 0kts
03-Mar-19 10:13 33.639189 -84.436425 90 1033ft 0kts
03-Mar-19 10:14 33.639189 -84.436425 90 1033ft 0kts
03-Mar-19 10:15 33.639189 -84.436425 90 1033ft 0kts
03-Mar-19 10:16 33.639189 -84.436425 90 1033ft 0kts
03-Mar-19 10:17 33.639277 -84.437113 124 1033ft 2kts
03-Mar-19 10:18 33.639565 -84.437227 179 1033ft 0kts
03-Mar-19 10:19 33.639562 -84.437227 179 1033ft 0kts
03-Mar-19 10:20 33.638209 -84.437219 179 1033ft 13kts
03-Mar-19 10:21 33.636636 -84.440814 269 1033ft 22kts
03-Mar-19 10:22 33.635479 -84.447816 180 1033ft 18kts
03-Mar-19 10:23 33.634688 -84.427866 92 1041ft 160kts
03-Mar-19 10:24 33.628983 -84.359268 111 2540ft 249kts
03-Mar-19 10:25 33.602734 -84.276901 124 5620ft 277kts
03-Mar-19 10:26 33.537245 -84.262810 189 8873ft 259kts
03-Mar-19 10:27 33.470905 -84.286633 233 11819ft 251kts
03-Mar-19 10:28 33.459342 -84.370290 262 15771ft 273kts
03-Mar-19 10:29 33.457809 -84.476036 265 17425ft 344kts
03-Mar-19 10:30 33.496105 -84.586488 296 20659ft 378kts
03-Mar-19 10:31 33.551049 -84.690812 296 22623ft 389kts
03-Mar-19 10:32 33.609854 -84.802677 296 25101ft 402kts
03-Mar-19 10:33 33.669799 -84.916667 296 26886ft 404kts
03-Mar-19 10:34 33.728172 -85.028153 296 29251ft 388kts
03-Mar-19 10:35 33.784744 -85.136610 296 31045ft 379kts
03-Mar-19 10:36 33.821169 -85.251380 271 31910ft 369kts
03-Mar-19 10:37 33.826452 -85.372487 271 31904ft 363kts
03-Mar-19 10:39 33.831637 -85.492900 271 31887ft 364kts
03-Mar-19 10:40 33.836811 -85.614271 271 31868ft 363kts
03-Mar-19 10:41 33.864853 -85.731909 286 31881ft 369kts
03-Mar-19 10:42 33.901573 -85.847023 286 31870ft 369kts
03-Mar-19 10:43 33.938145 -85.962233 286 31868ft 368kts
03-Mar-19 10:44 33.974744 -86.078018 286 31876ft 369kts
03-Mar-19 10:45 34.008275 -86.194316 284 31879ft 368kts
03-Mar-19 10:46 34.041078 -86.310461 284 31875ft 359kts
03-Mar-19 10:47 34.073350 -86.425020 284 31901ft 366kts
03-Mar-19 10:48 34.106284 -86.541818 283 31900ft 367kts
03-Mar-19 10:49 34.138875 -86.657921 283 31899ft 368kts
03-Mar-19 10:50 34.171728 -86.775482 282 31897ft 367kts
03-Mar-19 10:51 34.204224 -86.892302 282 31906ft 366kts
03-Mar-19 10:52 34.236432 -87.008576 282 31923ft 365kts
03-Mar-19 10:53 34.268595 -87.125166 282 31937ft 364kts
03-Mar-19 10:54 34.300424 -87.241047 281 31956ft 363kts
03-Mar-19 10:55 34.332084 -87.356804 281 31979ft 362kts
03-Mar-19 10:56 34.363630 -87.472623 281 31982ft 361kts
03-Mar-19 10:57 34.395055 -87.588513 281 31987ft 361kts
03-Mar-19 10:58 34.426247 -87.704017 281 31994ft 361kts
03-Mar-19 10:58 34.452102 -87.800136 281 32000ft 361kts
03-Mar-19 11:00 34.488233 -87.935006 281 32008ft 361kts
03-Mar-19 11:01 34.519099 -88.050671 281 32012ft 356kts
03-Mar-19 11:01 34.544543 -88.146504 281 32016ft 359kts
03-Mar-19 11:02 34.574990 -88.261545 280 32018ft 357kts
03-Mar-19 11:04 34.610286 -88.395552 280 32023ft 356kts
03-Mar-19 11:04 34.635346 -88.491114 280 32024ft 355kts
03-Mar-19 11:05 34.665297 -88.605783 280 32023ft 355kts
03-Mar-19 11:06 34.695021 -88.720065 280 32029ft 354kts
03-Mar-19 11:07 34.724525 -88.834008 280 32037ft 354kts
03-Mar-19 11:08 34.753983 -88.948254 280 32043ft 353kts
03-Mar-19 11:09 34.783210 -89.062074 280 32060ft 350kts
03-Mar-19 11:10 34.812055 -89.174955 279 32082ft 351kts
03-Mar-19 11:11 34.840836 -89.288024 279 32086ft 350kts
03-Mar-19 11:12 34.869538 -89.401289 279 32087ft 349kts
03-Mar-19 11:13 34.898042 -89.514242 279 32093ft 348kts
03-Mar-19 11:14 34.926392 -89.627111 279 32103ft 348kts
03-Mar-19 11:15 34.954652 -89.740101 279 32107ft 348kts
03-Mar-19 11:16 34.982807 -89.853160 279 32109ft 348kts
03-Mar-19 11:17 35.010548 -89.965014 279 32120ft 348kts
03-Mar-19 11:18 35.057137 -90.071926 290 32128ft 358kts
03-Mar-19 11:19 35.106991 -90.177820 290 32133ft 360kts
03-Mar-19 11:20 35.156695 -90.283610 290 32140ft 360kts
03-Mar-19 11:21 35.206720 -90.390399 290 32144ft 361kts
03-Mar-19 11:22 35.256532 -90.497030 290 32147ft 361kts
03-Mar-19 11:23 35.306107 -90.603502 290 32157ft 362kts
03-Mar-19 11:24 35.355934 -90.710819 290 32174ft 361kts
03-Mar-19 11:25 35.405602 -90.818144 290 32183ft 361kts
03-Mar-19 11:26 35.455235 -90.925735 290 32185ft 362kts
03-Mar-19 11:27 35.504574 -91.033027 291 32189ft 363kts
03-Mar-19 11:28 35.554136 -91.141137 291 32189ft 363kts
03-Mar-19 11:29 35.603853 -91.249937 291 32189ft 365kts
03-Mar-19 11:30 35.653441 -91.358804 291 32191ft 366kts
03-Mar-19 11:31 35.703023 -91.467997 291 32193ft 366kts
03-Mar-19 11:32 35.752789 -91.577952 292 32196ft 367kts
03-Mar-19 11:33 35.802608 -91.688399 292 32198ft 369kts
03-Mar-19 11:34 35.852461 -91.799271 292 32200ft 369kts
03-Mar-19 11:35 35.902168 -91.910197 292 32204ft 371kts
03-Mar-19 11:36 35.951816 -92.021340 292 32212ft 370kts
03-Mar-19 11:37 36.001284 -92.132458 292 32218ft 370kts
03-Mar-19 11:38 36.050904 -92.244301 292 32222ft 370kts
03-Mar-19 11:39 36.100477 -92.356394 292 32225ft 370kts
03-Mar-19 11:40 36.149767 -92.468248 292 32252ft 370kts
03-Mar-19 11:41 36.199103 -92.580570 292 32256ft 370kts
03-Mar-19 11:42 36.248250 -92.692851 292 32266ft 371kts
03-Mar-19 11:43 36.297361 -92.805424 293 32263ft 371kts
03-Mar-19 11:44 36.346391 -92.918197 293 32259ft 371kts
03-Mar-19 11:45 36.395329 -93.031137 293 32261ft 371kts
03-Mar-19 11:46 36.444133 -93.144160 293 32270ft 371kts
03-Mar-19 11:47 36.492712 -93.257055 293 32282ft 371kts
03-Mar-19 11:48 36.541294 -93.370344 293 32286ft 371kts
03-Mar-19 11:49 36.589812 -93.483879 293 32298ft 371kts
03-Mar-19 11:50 36.638033 -93.597109 293 32311ft 371kts
03-Mar-19 11:51 36.686232 -93.710682 293 32322ft 370kts
03-Mar-19 11:52 36.734300 -93.824342 293 32332ft 370kts
03-Mar-19 11:53 36.782085 -93.937734 293 32340ft 370kts
03-Mar-19 11:54 36.830060 -94.051968 294 32346ft 369kts
03-Mar-19 11:55 36.877667 -94.165736 293 32350ft 369kts
03-Mar-19 11:56 36.925045 -94.279350 294 32362ft 369kts
03-Mar-19 11:57 36.972312 -94.393110 294 32383ft 370kts
03-Mar-19 11:58 37.019530 -94.507143 293 32402ft 369kts
03-Mar-19 11:59 37.066661 -94.621376 294 32412ft 369kts
03-Mar-19 12:00 37.113614 -94.735581 293 32413ft 368kts
03-Mar-19 12:01 37.160471 -94.849967 293 32425ft 368kts
03-Mar-19 12:02 37.207107 -94.964214 294 32432ft 368kts
03-Mar-19 12:03 37.253669 -95.078701 293 32441ft 368kts
03-Mar-19 12:04 37.300138 -95.193377 293 32451ft 369kts
03-Mar-19 12:05 37.346564 -95.308346 293 32459ft 368kts
03-Mar-19 12:06 37.388788 -95.413279 293 32465ft 368kts
03-Mar-19 12:07 37.431050 -95.518659 293 32468ft 369kts
03-Mar-19 12:08 37.477164 -95.634044 293 32472ft 369kts
03-Mar-19 12:09 37.519184 -95.739560 293 32475ft 369kts
03-Mar-19 12:10 37.561311 -95.845699 293 32478ft 369kts
03-Mar-19 12:11 37.607067 -95.961389 293 32484ft 370kts
03-Mar-19 12:12 37.648943 -96.067647 293 32488ft 370kts
03-Mar-19 12:13 37.690814 -96.174252 293 32493ft 370kts
03-Mar-19 12:14 37.736304 -96.290489 293 32497ft 368kts
03-Mar-19 12:15 37.777851 -96.397033 293 32498ft 369kts
03-Mar-19 12:16 37.819186 -96.503395 293 32496ft 368kts
03-Mar-19 12:17 37.864207 -96.619661 293 32492ft 368kts
03-Mar-19 12:18 37.904861 -96.725024 293 32487ft 366kts
03-Mar-19 12:19 37.945805 -96.831508 293 32487ft 367kts
03-Mar-19 12:20 37.990261 -96.947544 293 32496ft 367kts
03-Mar-19 12:21 38.030922 -97.054065 293 32506ft 368kts
03-Mar-19 12:22 38.071489 -97.160697 293 32513ft 366kts
03-Mar-19 12:23 38.115808 -97.277629 293 32518ft 366kts
03-Mar-19 12:24 38.156158 -97.384476 293 32521ft 366kts
03-Mar-19 12:25 38.196303 -97.491155 293 32526ft 366kts
03-Mar-19 12:26 38.240145 -97.608087 292 32532ft 366kts
03-Mar-19 12:27 38.280135 -97.715138 292 32535ft 366kts
03-Mar-19 12:28 38.320006 -97.822251 292 32537ft 366kts
03-Mar-19 12:29 38.363570 -97.939719 292 32542ft 366kts
03-Mar-19 12:30 38.403211 -98.047007 292 32546ft 366kts
03-Mar-19 12:31 38.442704 -98.154278 292 32549ft 365kts
03-Mar-19 12:32 38.485773 -98.271701 292 32550ft 365kts
03-Mar-19 12:33 38.528586 -98.388886 292 32550ft 364kts
03-Mar-19 12:34 38.567101 -98.494688 292 32547ft 362kts
03-Mar-19 12:35 38.609464 -98.611518 292 32547ft 363kts
03-Mar-19 12:36 38.648219 -98.718787 292 32544ft 361kts
03-Mar-19 12:37 38.686611 -98.825442 292 32542ft 360kts
03-Mar-19 12:38 38.728484 -98.942209 292 32543ft 361kts
03-Mar-19 12:39 38.766564 -99.048791 292 32545ft 360kts
03-Mar-19 12:40 38.804535 -99.155461 292 32551ft 360kts
03-Mar-19 12:41 38.844112 -99.273091 283 32546ft 357kts
03-Mar-19 12:42 38.848657 -99.389446 272 32561ft 359kts
03-Mar-19 12:43 38.849898 -99.506328 272 32557ft 358kts
03-Mar-19 12:44 38.851086 -99.633916 272 32551ft 358kts
03-Mar-19 12:45 38.852014 -99.750557 272 32546ft 357kts
03-Mar-19 12:46 38.852846 -99.866348 272 32542ft 358kts
03-Mar-19 12:48 38.853542 -99.994034 272 32537ft 358kts
03-Mar-19 12:49 38.854103 -100.109167 272 32535ft 356kts
03-Mar-19 12:50 38.854626 -100.224915 272 32528ft 356kts
03-Mar-19 12:51 38.855036 -100.351920 272 32511ft 355kts
03-Mar-19 12:52 38.855279 -100.467178 272 32488ft 355kts
03-Mar-19 12:53 38.855399 -100.582194 272 32478ft 355kts
03-Mar-19 12:54 38.855397 -100.709133 272 32468ft 354kts
03-Mar-19 12:55 38.855276 -100.823958 272 32452ft 355kts
03-Mar-19 12:56 38.855042 -100.938525 272 32448ft 354kts
03-Mar-19 12:57 38.854644 -101.062775 272 32445ft 354kts
03-Mar-19 12:58 38.854119 -101.179615 272 32417ft 353kts
03-Mar-19 12:59 38.853553 -101.295898 272 32410ft 353kts
03-Mar-19 13:00 38.852717 -101.417529 272 32406ft 352kts
03-Mar-19 13:01 38.851894 -101.537095 272 32403ft 352kts
03-Mar-19 13:02 38.851002 -101.653429 272 32397ft 352kts
03-Mar-19 13:03 38.849945 -101.772189 272 32378ft 352kts
03-Mar-19 13:04 38.848514 -101.894439 272 32361ft 352kts
03-Mar-19 13:05 38.846950 -102.010933 272 32357ft 352kts
03-Mar-19 13:06 38.845178 -102.126516 271 32354ft 351kts
03-Mar-19 13:06 38.843598 -102.230838 271 32351ft 350kts
03-Mar-19 13:08 38.841429 -102.366884 271 32338ft 349kts
03-Mar-19 13:09 38.839450 -102.481837 271 32329ft 350kts
03-Mar-19 13:10 38.837163 -102.606453 271 32319ft 349kts
03-Mar-19 13:10 38.835371 -102.699640 272 32314ft 349kts
03-Mar-19 13:11 38.867327 -102.814545 298 32303ft 350kts
03-Mar-19 13:13 38.922913 -102.930857 298 32289ft 350kts
03-Mar-19 13:13 38.957205 -103.002553 298 30825ft 339kts
03-Mar-19 13:14 39.006490 -103.106024 298 28714ft 350kts
03-Mar-19 13:15 39.053482 -103.204939 298 26250ft 352kts
03-Mar-19 13:16 39.102769 -103.308846 298 26242ft 369kts
03-Mar-19 13:17 39.154513 -103.418254 298 24601ft 340kts
03-Mar-19 13:18 39.200230 -103.515320 298 22732ft 333kts
03-Mar-19 13:19 39.244887 -103.610234 298 20907ft 326kts
03-Mar-19 13:20 39.291522 -103.709698 297 19251ft 323kts
03-Mar-19 13:21 39.335292 -103.804622 297 19203ft 334kts
03-Mar-19 13:22 39.391421 -103.881317 308 19193ft 310kts
03-Mar-19 13:23 39.436954 -103.973208 298 19203ft 325kts
03-Mar-19 13:24 39.492499 -104.061749 302 19169ft 337kts
03-Mar-19 13:25 39.537836 -104.156593 300 17902ft 327kts
03-Mar-19 13:26 39.587860 -104.240781 301 16306ft 292kts
03-Mar-19 13:27 39.631307 -104.320833 302 14684ft 266kts
03-Mar-19 13:28 39.670121 -104.391743 302 13139ft 246kts
03-Mar-19 13:29 39.710904 -104.460136 312 13002ft 263kts
03-Mar-19 13:30 39.766927 -104.514445 349 12997ft 260kts
03-Mar-19 13:31 39.835067 -104.509734 357 12727ft 242kts
03-Mar-19 13:32 39.896666 -104.514303 348 11717ft 213kts
03-Mar-19 13:33 39.958668 -104.517401 354 11031ft 231kts
03-Mar-19 13:34 40.019058 -104.516875 356 10726ft 234kts
03-Mar-19 13:35 40.079157 -104.515777 0 9346ft 230kts
03-Mar-19 13:36 40.142364 -104.507435 6 8077ft 225kts
03-Mar-19 13:37 40.200419 -104.498468 6 8066ft 225kts
03-Mar-19 13:38 40.258529 -104.489424 6 8080ft 226kts
03-Mar-19 13:39 40.320865 -104.479684 6 8089ft 226kts
03-Mar-19 13:40 40.378968 -104.470507 6 8093ft 225kts
03-Mar-19 13:41 40.436966 -104.461285 5 8095ft 225kts
03-Mar-19 13:42 40.451825 -104.516609 212 8090ft 229kts
03-Mar-19 13:43 40.395598 -104.543245 198 8108ft 231kts
03-Mar-19 13:44 40.338826 -104.567881 198 8097ft 231kts
03-Mar-19 13:45 40.277869 -104.594322 198 8091ft 231kts
03-Mar-19 13:46 40.220841 -104.619054 198 8081ft 231kts
03-Mar-19 13:47 40.164062 -104.643674 198 8063ft 231kts
03-Mar-19 13:48 40.100863 -104.656811 182 8062ft 231kts
03-Mar-19 13:49 40.040978 -104.657984 180 8032ft 229kts
03-Mar-19 13:50 39.977020 -104.658746 179 7736ft 230kts
03-Mar-19 13:51 39.913652 -104.659503 178 6482ft 224kts
03-Mar-19 13:52 39.858523 -104.660221 177 5466ft 138kts
03-Mar-19 13:53 39.840593 -104.661622 208 5438ft 9kts
03-Mar-19 13:54 39.840447 -104.661724 208 5438ft 1kts
03-Mar-19 13:55 39.842897 -104.662533 0 5438ft 19kts
03-Mar-19 13:56 39.849148 -104.662416 359 5438ft 25kts
03-Mar-19 13:57 39.855827 -104.663000 270 5438ft 15kts
03-Mar-19 13:58 39.855879 -104.669305 271 5438ft 17kts
03-Mar-19 13:59 39.855181 -104.674679 266 5438ft 16kts
03-Mar-19 14:00 39.854485 -104.676763 209 5438ft 0kts
03-Mar-19 14:01 39.854484 -104.676764 209 5438ft 0kts
03-Mar-19 14:02 39.854484 -104.676764 209 5438ft 0kts
03-Mar-19 14:03 39.854484 -104.676764 209 5438ft 0kts
03-Mar-19 14:04 39.854484 -104.676764 209 5438ft 0kts
03-Mar-19 14:05 39.854484 -104.676764 209 5438ft 0kts
03-Mar-19 14:06 39.854484 -104.676764 209 5438ft 0kts
03-Mar-19 14:07 39.854484 -104.676764 209 5438ft 0kts

Navigation Log

Ident Type
Flight plan parsing failed, navigation log unavailable